Delhi, Canada
Current Conditions -  °F | °C
As of 12:00 PM on Thursday 27 Nov 2014 (Local Time) from CYXU Reporting Station
Broken Clouds Broken Clouds  
Wind Chill: -3°   Ceiling: 1600
Heat Index:   Visibility: 15mi
Dew Point: -2°   Wind: 9mph
Humidity: 81%   Direction: 280°W
Pressure: 30.06"   Gusts: NA
Location:  42.85°N, 80.49°W
Report Text: CYXU 271700Z 28008KT 15SM BKN016 BKN070 01/M02 A3006 RMK SC5AC1 SLP191
Loading
Personal Weather Stations






























Interactive Weather Map New forecast layout! Learn more

10-Day Weather Forecast

Advertisements
Track Severe Weather on mobile